sensor_id;sensor_type;location;lat;lon;timestamp;temperature;humidity
16964;DHT22;8598;50.508;10.436;2023-05-16T00:01:45;9.70;99.90
16964;DHT22;8598;50.508;10.436;2023-05-16T00:04:12;9.70;99.90
16964;DHT22;8598;50.508;10.436;2023-05-16T00:06:38;9.70;99.90
16964;DHT22;8598;50.508;10.436;2023-05-16T00:09:06;9.60;99.90
16964;DHT22;8598;50.508;10.436;2023-05-16T00:11:33;9.60;99.90
16964;DHT22;8598;50.508;10.436;2023-05-16T00:14:00;9.60;99.90
16964;DHT22;8598;50.508;10.436;2023-05-16T00:16:27;9.60;99.90
16964;DHT22;8598;50.508;10.436;2023-05-16T00:18:54;9.60;99.90
16964;DHT22;8598;50.508;10.436;2023-05-16T00:21:21;9.60;99.90
16964;DHT22;8598;50.508;10.436;2023-05-16T00:23:49;9.60;99.90
16964;DHT22;8598;50.508;10.436;2023-05-16T00:26:18;9.60;99.90
16964;DHT22;8598;50.508;10.436;2023-05-16T00:28:45;9.60;99.90
16964;DHT22;8598;50.508;10.436;2023-05-16T00:31:11;9.60;99.90
16964;DHT22;8598;50.508;10.436;2023-05-16T00:33:38;9.50;99.90
16964;DHT22;8598;50.508;10.436;2023-05-16T00:36:05;9.50;99.90
16964;DHT22;8598;50.508;10.436;2023-05-16T00:38:32;9.40;99.90
16964;DHT22;8598;50.508;10.436;2023-05-16T00:40:59;9.40;99.90
16964;DHT22;8598;50.508;10.436;2023-05-16T00:43:27;9.30;99.90
16964;DHT22;8598;50.508;10.436;2023-05-16T00:45:53;9.20;99.90
16964;DHT22;8598;50.508;10.436;2023-05-16T00:48:22;9.10;99.90
16964;DHT22;8598;50.508;10.436;2023-05-16T00:50:49;9.00;99.90
16964;DHT22;8598;50.508;10.436;2023-05-16T00:53:17;9.10;99.90
16964;DHT22;8598;50.508;10.436;2023-05-16T00:55:44;9.00;99.90
16964;DHT22;8598;50.508;10.436;2023-05-16T00:58:11;9.00;99.90
16964;DHT22;8598;50.508;10.436;2023-05-16T01:00:39;9.00;99.90
16964;DHT22;8598;50.508;10.436;2023-05-16T01:03:06;9.00;99.90
16964;DHT22;8598;50.508;10.436;2023-05-16T01:05:33;9.00;99.90
16964;DHT22;8598;50.508;10.436;2023-05-16T01:07:59;9.00;99.90
16964;DHT22;8598;50.508;10.436;2023-05-16T01:10:30;8.90;99.90
16964;DHT22;8598;50.508;10.436;2023-05-16T01:13:06;9.00;99.90
16964;DHT22;8598;50.508;10.436;2023-05-16T01:15:38;9.10;99.90
16964;DHT22;8598;50.508;10.436;2023-05-16T01:18:14;9.20;99.90
16964;DHT22;8598;50.508;10.436;2023-05-16T01:20:47;9.20;99.90
16964;DHT22;8598;50.508;10.436;2023-05-16T01:23:26;9.20;99.90
16964;DHT22;8598;50.508;10.436;2023-05-16T01:26:09;9.30;99.90
16964;DHT22;8598;50.508;10.436;2023-05-16T01:28:37;9.30;99.90
16964;DHT22;8598;50.508;10.436;2023-05-16T01:31:04;9.40;99.90
16964;DHT22;8598;50.508;10.436;2023-05-16T01:33:31;9.50;99.90
16964;DHT22;8598;50.508;10.436;2023-05-16T01:36:05;9.50;99.90
16964;DHT22;8598;50.508;10.436;2023-05-16T01:38:38;9.50;99.90
16964;DHT22;8598;50.508;10.436;2023-05-16T01:41:14;9.60;99.90
16964;DHT22;8598;50.508;10.436;2023-05-16T01:43:45;9.60;99.90
16964;DHT22;8598;50.508;10.436;2023-05-16T01:46:15;9.60;99.90
16964;DHT22;8598;50.508;10.436;2023-05-16T01:48:50;9.70;99.90
16964;DHT22;8598;50.508;10.436;2023-05-16T01:51:21;9.70;99.90
16964;DHT22;8598;50.508;10.436;2023-05-16T01:53:51;9.70;99.90
16964;DHT22;8598;50.508;10.436;2023-05-16T01:56:22;9.70;99.90
16964;DHT22;8598;50.508;10.436;2023-05-16T01:58:50;9.70;99.90
16964;DHT22;8598;50.508;10.436;2023-05-16T02:01:18;9.80;99.90
16964;DHT22;8598;50.508;10.436;2023-05-16T02:03:45;9.80;99.90
16964;DHT22;8598;50.508;10.436;2023-05-16T02:06:11;9.80;99.90
16964;DHT22;8598;50.508;10.436;2023-05-16T02:08:38;9.80;99.90
16964;DHT22;8598;50.508;10.436;2023-05-16T02:11:05;9.80;99.90
16964;DHT22;8598;50.508;10.436;2023-05-16T02:13:33;9.80;99.90
16964;DHT22;8598;50.508;10.436;2023-05-16T02:15:59;9.80;99.90
16964;DHT22;8598;50.508;10.436;2023-05-16T02:18:26;9.80;99.90
16964;DHT22;8598;50.508;10.436;2023-05-16T02:20:53;9.90;99.90
16964;DHT22;8598;50.508;10.436;2023-05-16T02:23:19;10.00;99.90
16964;DHT22;8598;50.508;10.436;2023-05-16T02:25:46;10.10;99.90
16964;DHT22;8598;50.508;10.436;2023-05-16T02:28:12;10.10;99.90
16964;DHT22;8598;50.508;10.436;2023-05-16T02:30:40;10.10;99.90
16964;DHT22;8598;50.508;10.436;2023-05-16T02:33:07;10.20;99.90
16964;DHT22;8598;50.508;10.436;2023-05-16T02:35:33;10.20;99.90
16964;DHT22;8598;50.508;10.436;2023-05-16T02:38:00;10.30;99.90
16964;DHT22;8598;50.508;10.436;2023-05-16T02:40:27;10.30;99.90
16964;DHT22;8598;50.508;10.436;2023-05-16T02:42:54;10.40;99.90
16964;DHT22;8598;50.508;10.436;2023-05-16T02:45:20;10.40;99.90
16964;DHT22;8598;50.508;10.436;2023-05-16T02:47:48;10.40;99.90
16964;DHT22;8598;50.508;10.436;2023-05-16T02:50:15;10.40;99.90
16964;DHT22;8598;50.508;10.436;2023-05-16T02:52:42;10.50;99.90
16964;DHT22;8598;50.508;10.436;2023-05-16T02:55:08;10.50;99.90
16964;DHT22;8598;50.508;10.436;2023-05-16T02:57:35;10.50;99.90
16964;DHT22;8598;50.508;10.436;2023-05-16T03:00:02;10.50;99.90
16964;DHT22;8598;50.508;10.436;2023-05-16T03:02:30;10.50;99.90
16964;DHT22;8598;50.508;10.436;2023-05-16T03:04:58;10.50;99.90
16964;DHT22;8598;50.508;10.436;2023-05-16T03:07:25;10.50;99.90
16964;DHT22;8598;50.508;10.436;2023-05-16T03:09:51;10.50;99.90
16964;DHT22;8598;50.508;10.436;2023-05-16T03:12:18;10.40;99.90
16964;DHT22;8598;50.508;10.436;2023-05-16T03:14:44;10.40;99.90
16964;DHT22;8598;50.508;10.436;2023-05-16T03:17:11;10.40;99.90
16964;DHT22;8598;50.508;10.436;2023-05-16T03:19:38;10.50;99.90
16964;DHT22;8598;50.508;10.436;2023-05-16T03:22:06;10.40;99.90
16964;DHT22;8598;50.508;10.436;2023-05-16T03:24:32;10.50;99.90
16964;DHT22;8598;50.508;10.436;2023-05-16T03:26:59;10.40;99.90
16964;DHT22;8598;50.508;10.436;2023-05-16T03:29:25;10.40;99.90
16964;DHT22;8598;50.508;10.436;2023-05-16T03:31:52;10.50;99.90
16964;DHT22;8598;50.508;10.436;2023-05-16T03:34:19;10.50;99.90
16964;DHT22;8598;50.508;10.436;2023-05-16T03:36:48;10.40;99.90
16964;DHT22;8598;50.508;10.436;2023-05-16T03:39:16;10.40;99.90
16964;DHT22;8598;50.508;10.436;2023-05-16T03:41:43;10.50;99.90
16964;DHT22;8598;50.508;10.436;2023-05-16T03:44:10;10.40;99.90
16964;DHT22;8598;50.508;10.436;2023-05-16T03:46:36;10.40;99.90
16964;DHT22;8598;50.508;10.436;2023-05-16T03:49:03;10.40;99.90
16964;DHT22;8598;50.508;10.436;2023-05-16T03:51:30;10.50;99.90
16964;DHT22;8598;50.508;10.436;2023-05-16T03:53:57;10.40;99.90
16964;DHT22;8598;50.508;10.436;2023-05-16T03:56:25;10.40;99.90
16964;DHT22;8598;50.508;10.436;2023-05-16T03:58:52;10.40;99.90
16964;DHT22;8598;50.508;10.436;2023-05-16T04:01:18;10.40;99.90
16964;DHT22;8598;50.508;10.436;2023-05-16T04:03:45;10.40;99.90
16964;DHT22;8598;50.508;10.436;2023-05-16T04:06:12;10.40;99.90
16964;DHT22;8598;50.508;10.436;2023-05-16T04:08:38;10.50;99.90
16964;DHT22;8598;50.508;10.436;2023-05-16T04:11:05;10.40;99.90
16964;DHT22;8598;50.508;10.436;2023-05-16T04:13:33;10.40;99.90
16964;DHT22;8598;50.508;10.436;2023-05-16T04:16:00;10.40;99.90
16964;DHT22;8598;50.508;10.436;2023-05-16T04:18:26;10.40;99.90
16964;DHT22;8598;50.508;10.436;2023-05-16T04:20:53;10.40;99.90
16964;DHT22;8598;50.508;10.436;2023-05-16T04:23:19;10.40;99.90
16964;DHT22;8598;50.508;10.436;2023-05-16T04:25:46;10.40;99.90
16964;DHT22;8598;50.508;10.436;2023-05-16T04:28:13;10.50;99.90
16964;DHT22;8598;50.508;10.436;2023-05-16T04:30:41;10.40;99.90
16964;DHT22;8598;50.508;10.436;2023-05-16T04:33:07;10.40;99.90
16964;DHT22;8598;50.508;10.436;2023-05-16T04:35:34;10.40;99.90
16964;DHT22;8598;50.508;10.436;2023-05-16T04:38:02;10.40;99.90
16964;DHT22;8598;50.508;10.436;2023-05-16T04:40:29;10.50;99.90
16964;DHT22;8598;50.508;10.436;2023-05-16T04:42:55;10.50;99.90
16964;DHT22;8598;50.508;10.436;2023-05-16T04:45:22;10.50;99.90
16964;DHT22;8598;50.508;10.436;2023-05-16T04:47:50;10.50;99.90
16964;DHT22;8598;50.508;10.436;2023-05-16T04:50:17;10.50;99.90
16964;DHT22;8598;50.508;10.436;2023-05-16T04:52:43;10.60;99.90
16964;DHT22;8598;50.508;10.436;2023-05-16T04:55:11;10.60;99.90
16964;DHT22;8598;50.508;10.436;2023-05-16T04:57:37;10.60;99.90
16964;DHT22;8598;50.508;10.436;2023-05-16T05:00:06;10.70;99.90
16964;DHT22;8598;50.508;10.436;2023-05-16T05:02:36;10.60;99.90
16964;DHT22;8598;50.508;10.436;2023-05-16T05:05:05;10.60;99.90
16964;DHT22;8598;50.508;10.436;2023-05-16T05:07:32;10.70;99.90
16964;DHT22;8598;50.508;10.436;2023-05-16T05:09:59;10.70;99.90
16964;DHT22;8598;50.508;10.436;2023-05-16T05:12:26;10.70;99.90
16964;DHT22;8598;50.508;10.436;2023-05-16T05:14:53;10.70;99.90
16964;DHT22;8598;50.508;10.436;2023-05-16T05:17:21;10.70;99.90
16964;DHT22;8598;50.508;10.436;2023-05-16T05:19:48;10.60;99.90
16964;DHT22;8598;50.508;10.436;2023-05-16T05:22:16;10.60;99.90
16964;DHT22;8598;50.508;10.436;2023-05-16T05:24:43;10.60;99.90
16964;DHT22;8598;50.508;10.436;2023-05-16T05:27:09;10.60;99.90
16964;DHT22;8598;50.508;10.436;2023-05-16T05:29:36;10.70;99.90
16964;DHT22;8598;50.508;10.436;2023-05-16T05:32:03;10.70;99.90
16964;DHT22;8598;50.508;10.436;2023-05-16T05:34:30;10.70;99.90
16964;DHT22;8598;50.508;10.436;2023-05-16T05:36:57;10.70;99.90
16964;DHT22;8598;50.508;10.436;2023-05-16T05:39:25;10.70;99.90
16964;DHT22;8598;50.508;10.436;2023-05-16T05:41:52;10.80;99.90
16964;DHT22;8598;50.508;10.436;2023-05-16T05:44:18;10.80;99.90
16964;DHT22;8598;50.508;10.436;2023-05-16T05:46:45;10.70;99.90
16964;DHT22;8598;50.508;10.436;2023-05-16T05:49:12;10.70;99.90
16964;DHT22;8598;50.508;10.436;2023-05-16T05:51:39;10.60;99.90
16964;DHT22;8598;50.508;10.436;2023-05-16T05:54:05;10.70;99.90
16964;DHT22;8598;50.508;10.436;2023-05-16T05:56:33;10.60;99.90
16964;DHT22;8598;50.508;10.436;2023-05-16T05:59:00;10.60;99.90
16964;DHT22;8598;50.508;10.436;2023-05-16T06:01:27;10.70;99.90
16964;DHT22;8598;50.508;10.436;2023-05-16T06:03:54;10.70;99.90
16964;DHT22;8598;50.508;10.436;2023-05-16T06:06:21;10.90;99.90
16964;DHT22;8598;50.508;10.436;2023-05-16T06:08:48;10.90;99.90
16964;DHT22;8598;50.508;10.436;2023-05-16T06:11:15;10.70;99.90
16964;DHT22;8598;50.508;10.436;2023-05-16T06:13:43;10.60;99.90
16964;DHT22;8598;50.508;10.436;2023-05-16T06:16:09;10.50;99.90
16964;DHT22;8598;50.508;10.436;2023-05-16T06:18:36;10.70;99.90
16964;DHT22;8598;50.508;10.436;2023-05-16T06:21:03;10.80;99.90
16964;DHT22;8598;50.508;10.436;2023-05-16T06:23:30;10.70;99.90
16964;DHT22;8598;50.508;10.436;2023-05-16T06:25:56;10.80;99.90
16964;DHT22;8598;50.508;10.436;2023-05-16T06:28:23;10.70;99.90
16964;DHT22;8598;50.508;10.436;2023-05-16T06:30:51;10.70;99.90
16964;DHT22;8598;50.508;10.436;2023-05-16T06:33:18;10.80;99.90
16964;DHT22;8598;50.508;10.436;2023-05-16T06:35:45;10.80;99.90
16964;DHT22;8598;50.508;10.436;2023-05-16T06:38:12;10.80;99.90
16964;DHT22;8598;50.508;10.436;2023-05-16T06:40:39;10.80;99.90
16964;DHT22;8598;50.508;10.436;2023-05-16T06:43:06;10.80;99.90
16964;DHT22;8598;50.508;10.436;2023-05-16T06:45:32;10.90;99.90
16964;DHT22;8598;50.508;10.436;2023-05-16T06:48:00;10.90;99.90
16964;DHT22;8598;50.508;10.436;2023-05-16T06:50:27;10.80;99.90
16964;DHT22;8598;50.508;10.436;2023-05-16T06:52:54;10.80;99.90
16964;DHT22;8598;50.508;10.436;2023-05-16T06:55:20;10.80;99.90
16964;DHT22;8598;50.508;10.436;2023-05-16T06:57:47;10.80;99.90
16964;DHT22;8598;50.508;10.436;2023-05-16T07:00:14;10.90;99.90
16964;DHT22;8598;50.508;10.436;2023-05-16T07:02:41;10.80;99.90
16964;DHT22;8598;50.508;10.436;2023-05-16T07:05:09;10.90;99.90
16964;DHT22;8598;50.508;10.436;2023-05-16T07:07:36;11.00;99.90
16964;DHT22;8598;50.508;10.436;2023-05-16T07:10:02;11.10;99.90
16964;DHT22;8598;50.508;10.436;2023-05-16T07:12:29;11.10;99.90
16964;DHT22;8598;50.508;10.436;2023-05-16T07:14:56;11.10;99.90
16964;DHT22;8598;50.508;10.436;2023-05-16T07:17:22;11.00;99.90
16964;DHT22;8598;50.508;10.436;2023-05-16T07:19:49;11.10;99.90
16964;DHT22;8598;50.508;10.436;2023-05-16T07:22:17;11.20;99.90
16964;DHT22;8598;50.508;10.436;2023-05-16T07:24:44;11.20;99.90
16964;DHT22;8598;50.508;10.436;2023-05-16T07:27:10;11.40;99.90
16964;DHT22;8598;50.508;10.436;2023-05-16T07:29:37;11.30;99.90
16964;DHT22;8598;50.508;10.436;2023-05-16T07:32:05;11.30;99.90
16964;DHT22;8598;50.508;10.436;2023-05-16T07:34:31;11.40;99.90
16964;DHT22;8598;50.508;10.436;2023-05-16T07:36:58;11.50;99.90
16964;DHT22;8598;50.508;10.436;2023-05-16T07:39:26;11.40;99.90
16964;DHT22;8598;50.508;10.436;2023-05-16T07:41:53;11.70;99.90
16964;DHT22;8598;50.508;10.436;2023-05-16T07:44:20;11.90;99.90
16964;DHT22;8598;50.508;10.436;2023-05-16T07:46:46;12.00;99.90
16964;DHT22;8598;50.508;10.436;2023-05-16T07:49:13;12.20;99.90
16964;DHT22;8598;50.508;10.436;2023-05-16T07:51:40;12.30;99.90
16964;DHT22;8598;50.508;10.436;2023-05-16T07:54:06;12.00;99.90
16964;DHT22;8598;50.508;10.436;2023-05-16T07:56:34;11.90;99.90
16964;DHT22;8598;50.508;10.436;2023-05-16T07:59:01;12.30;99.90
16964;DHT22;8598;50.508;10.436;2023-05-16T08:01:30;12.40;99.90
16964;DHT22;8598;50.508;10.436;2023-05-16T08:03:56;12.10;99.90
16964;DHT22;8598;50.508;10.436;2023-05-16T08:06:23;12.00;99.90
16964;DHT22;8598;50.508;10.436;2023-05-16T08:08:50;11.90;99.90
16964;DHT22;8598;50.508;10.436;2023-05-16T08:11:18;12.00;99.90
16964;DHT22;8598;50.508;10.436;2023-05-16T08:13:48;12.20;99.90
16964;DHT22;8598;50.508;10.436;2023-05-16T08:16:15;12.20;99.90
16964;DHT22;8598;50.508;10.436;2023-05-16T08:18:41;12.40;99.90
16964;DHT22;8598;50.508;10.436;2023-05-16T08:21:08;12.60;99.90
16964;DHT22;8598;50.508;10.436;2023-05-16T08:23:35;12.70;99.90
16964;DHT22;8598;50.508;10.436;2023-05-16T08:26:02;12.80;99.90
16964;DHT22;8598;50.508;10.436;2023-05-16T08:28:28;12.60;99.90
16964;DHT22;8598;50.508;10.436;2023-05-16T08:30:56;12.80;99.90
16964;DHT22;8598;50.508;10.436;2023-05-16T08:33:23;13.10;99.90
16964;DHT22;8598;50.508;10.436;2023-05-16T08:35:50;13.10;99.90
16964;DHT22;8598;50.508;10.436;2023-05-16T08:38:17;13.20;99.90
16964;DHT22;8598;50.508;10.436;2023-05-16T08:40:44;13.60;99.90
16964;DHT22;8598;50.508;10.436;2023-05-16T08:43:11;13.70;99.90
16964;DHT22;8598;50.508;10.436;2023-05-16T08:45:39;13.50;99.90
16964;DHT22;8598;50.508;10.436;2023-05-16T08:48:10;13.60;99.90
16964;DHT22;8598;50.508;10.436;2023-05-16T08:50:37;13.70;99.90
16964;DHT22;8598;50.508;10.436;2023-05-16T08:53:05;13.40;99.90
16964;DHT22;8598;50.508;10.436;2023-05-16T08:55:33;13.40;99.90
16964;DHT22;8598;50.508;10.436;2023-05-16T08:58:00;13.20;99.90
16964;DHT22;8598;50.508;10.436;2023-05-16T09:00:27;12.50;99.90
16964;DHT22;8598;50.508;10.436;2023-05-16T09:02:54;12.20;99.90
16964;DHT22;8598;50.508;10.436;2023-05-16T09:05:22;12.10;99.90
16964;DHT22;8598;50.508;10.436;2023-05-16T09:07:49;12.10;99.90
16964;DHT22;8598;50.508;10.436;2023-05-16T09:10:16;12.20;99.90
16964;DHT22;8598;50.508;10.436;2023-05-16T09:12:43;12.10;99.90
16964;DHT22;8598;50.508;10.436;2023-05-16T09:15:10;12.20;99.90
16964;DHT22;8598;50.508;10.436;2023-05-16T09:17:38;12.10;99.90
16964;DHT22;8598;50.508;10.436;2023-05-16T09:20:09;12.30;99.90
16964;DHT22;8598;50.508;10.436;2023-05-16T09:22:38;13.30;99.90
16964;DHT22;8598;50.508;10.436;2023-05-16T09:25:05;14.50;99.90
16964;DHT22;8598;50.508;10.436;2023-05-16T09:27:32;14.40;99.90
16964;DHT22;8598;50.508;10.436;2023-05-16T09:29:59;13.90;99.90
16964;DHT22;8598;50.508;10.436;2023-05-16T09:32:25;13.40;99.90
16964;DHT22;8598;50.508;10.436;2023-05-16T09:34:53;12.80;99.90
16964;DHT22;8598;50.508;10.436;2023-05-16T09:37:22;12.60;99.90
16964;DHT22;8598;50.508;10.436;2023-05-16T09:39:51;12.30;99.90
16964;DHT22;8598;50.508;10.436;2023-05-16T09:42:19;12.10;99.90
16964;DHT22;8598;50.508;10.436;2023-05-16T09:44:48;12.00;99.90
16964;DHT22;8598;50.508;10.436;2023-05-16T09:47:15;12.00;99.90
16964;DHT22;8598;50.508;10.436;2023-05-16T09:49:43;12.10;99.90
16964;DHT22;8598;50.508;10.436;2023-05-16T09:52:10;12.10;99.90
16964;DHT22;8598;50.508;10.436;2023-05-16T09:54:36;11.90;99.90
16964;DHT22;8598;50.508;10.436;2023-05-16T09:57:04;12.00;99.90
16964;DHT22;8598;50.508;10.436;2023-05-16T09:59:34;12.20;99.90
16964;DHT22;8598;50.508;10.436;2023-05-16T10:02:02;12.20;99.90
16964;DHT22;8598;50.508;10.436;2023-05-16T10:04:30;12.40;99.90
16964;DHT22;8598;50.508;10.436;2023-05-16T10:07:01;12.60;99.90
16964;DHT22;8598;50.508;10.436;2023-05-16T10:09:29;12.20;99.90
16964;DHT22;8598;50.508;10.436;2023-05-16T10:11:57;12.10;99.90
16964;DHT22;8598;50.508;10.436;2023-05-16T10:14:29;12.20;99.90
16964;DHT22;8598;50.508;10.436;2023-05-16T10:16:59;12.00;99.90
16964;DHT22;8598;50.508;10.436;2023-05-16T10:19:27;11.60;99.90
16964;DHT22;8598;50.508;10.436;2023-05-16T10:21:57;11.00;99.90
16964;DHT22;8598;50.508;10.436;2023-05-16T10:24:30;10.90;99.90
16964;DHT22;8598;50.508;10.436;2023-05-16T10:27:02;10.80;99.90
16964;DHT22;8598;50.508;10.436;2023-05-16T10:29:31;10.80;99.90
16964;DHT22;8598;50.508;10.436;2023-05-16T10:31:58;11.10;99.90
16964;DHT22;8598;50.508;10.436;2023-05-16T10:34:25;11.10;99.90
16964;DHT22;8598;50.508;10.436;2023-05-16T10:36:52;11.40;99.90
16964;DHT22;8598;50.508;10.436;2023-05-16T10:39:19;11.70;99.90
16964;DHT22;8598;50.508;10.436;2023-05-16T10:41:46;12.10;99.90
16964;DHT22;8598;50.508;10.436;2023-05-16T10:44:13;12.40;99.90
16964;DHT22;8598;50.508;10.436;2023-05-16T10:46:42;12.40;99.90
16964;DHT22;8598;50.508;10.436;2023-05-16T10:49:19;12.60;99.90
16964;DHT22;8598;50.508;10.436;2023-05-16T10:52:00;12.70;99.90
16964;DHT22;8598;50.508;10.436;2023-05-16T10:54:33;13.00;99.90
16964;DHT22;8598;50.508;10.436;2023-05-16T10:57:04;12.70;99.90
16964;DHT22;8598;50.508;10.436;2023-05-16T10:59:39;12.70;99.90
16964;DHT22;8598;50.508;10.436;2023-05-16T11:02:21;12.70;99.90
16964;DHT22;8598;50.508;10.436;2023-05-16T11:04:48;12.80;99.90
16964;DHT22;8598;50.508;10.436;2023-05-16T11:07:17;12.70;99.90
16964;DHT22;8598;50.508;10.436;2023-05-16T11:09:44;12.80;99.90
16964;DHT22;8598;50.508;10.436;2023-05-16T11:12:11;12.80;99.90
16964;DHT22;8598;50.508;10.436;2023-05-16T11:14:39;12.90;99.90
16964;DHT22;8598;50.508;10.436;2023-05-16T11:17:10;12.90;99.90
16964;DHT22;8598;50.508;10.436;2023-05-16T11:19:42;12.90;99.90
16964;DHT22;8598;50.508;10.436;2023-05-16T11:22:27;12.50;99.90
16964;DHT22;8598;50.508;10.436;2023-05-16T11:24:57;12.30;99.90
16964;DHT22;8598;50.508;10.436;2023-05-16T11:27:26;12.60;99.90
16964;DHT22;8598;50.508;10.436;2023-05-16T11:29:54;13.10;99.90
16964;DHT22;8598;50.508;10.436;2023-05-16T11:32:22;13.30;99.90
16964;DHT22;8598;50.508;10.436;2023-05-16T11:34:50;13.50;99.90
16964;DHT22;8598;50.508;10.436;2023-05-16T11:37:18;13.70;99.90
16964;DHT22;8598;50.508;10.436;2023-05-16T11:39:45;13.70;99.90
16964;DHT22;8598;50.508;10.436;2023-05-16T11:42:12;13.80;99.90
16964;DHT22;8598;50.508;10.436;2023-05-16T11:44:38;13.60;99.90
16964;DHT22;8598;50.508;10.436;2023-05-16T11:47:06;13.70;99.90
16964;DHT22;8598;50.508;10.436;2023-05-16T11:49:34;14.10;99.90
16964;DHT22;8598;50.508;10.436;2023-05-16T11:52:01;13.90;99.90
16964;DHT22;8598;50.508;10.436;2023-05-16T11:54:28;13.90;99.90
16964;DHT22;8598;50.508;10.436;2023-05-16T11:56:55;14.20;99.90
16964;DHT22;8598;50.508;10.436;2023-05-16T11:59:22;14.00;99.90
16964;DHT22;8598;50.508;10.436;2023-05-16T12:01:48;13.80;99.90
16964;DHT22;8598;50.508;10.436;2023-05-16T12:04:16;13.80;99.90
16964;DHT22;8598;50.508;10.436;2023-05-16T12:06:57;13.50;99.90
16964;DHT22;8598;50.508;10.436;2023-05-16T12:09:24;13.80;99.90
16964;DHT22;8598;50.508;10.436;2023-05-16T12:11:51;13.90;99.90
16964;DHT22;8598;50.508;10.436;2023-05-16T12:14:18;13.40;99.90
16964;DHT22;8598;50.508;10.436;2023-05-16T12:16:45;13.40;99.90
16964;DHT22;8598;50.508;10.436;2023-05-16T12:19:14;12.80;99.90
16964;DHT22;8598;50.508;10.436;2023-05-16T12:21:40;12.70;99.90
16964;DHT22;8598;50.508;10.436;2023-05-16T12:24:10;12.70;99.90
16964;DHT22;8598;50.508;10.436;2023-05-16T12:26:39;12.60;99.90
16964;DHT22;8598;50.508;10.436;2023-05-16T12:29:07;12.70;99.90
16964;DHT22;8598;50.508;10.436;2023-05-16T12:31:37;12.70;99.90
16964;DHT22;8598;50.508;10.436;2023-05-16T12:34:03;12.70;99.90
16964;DHT22;8598;50.508;10.436;2023-05-16T12:36:31;12.80;99.90
16964;DHT22;8598;50.508;10.436;2023-05-16T12:38:59;13.10;99.90
16964;DHT22;8598;50.508;10.436;2023-05-16T12:41:29;13.10;99.90
16964;DHT22;8598;50.508;10.436;2023-05-16T12:44:05;13.60;99.90
16964;DHT22;8598;50.508;10.436;2023-05-16T12:46:32;13.80;99.90
16964;DHT22;8598;50.508;10.436;2023-05-16T12:49:01;14.00;99.90
16964;DHT22;8598;50.508;10.436;2023-05-16T12:51:29;13.90;99.90
16964;DHT22;8598;50.508;10.436;2023-05-16T12:53:56;13.90;99.90
16964;DHT22;8598;50.508;10.436;2023-05-16T12:56:23;14.10;99.90
16964;DHT22;8598;50.508;10.436;2023-05-16T12:58:51;14.40;99.90
16964;DHT22;8598;50.508;10.436;2023-05-16T13:01:18;14.40;99.90
16964;DHT22;8598;50.508;10.436;2023-05-16T13:03:44;14.40;99.90
16964;DHT22;8598;50.508;10.436;2023-05-16T13:06:11;14.40;99.90
16964;DHT22;8598;50.508;10.436;2023-05-16T13:08:37;14.70;99.90
16964;DHT22;8598;50.508;10.436;2023-05-16T13:11:04;15.00;99.90
16964;DHT22;8598;50.508;10.436;2023-05-16T13:13:31;15.20;99.90
16964;DHT22;8598;50.508;10.436;2023-05-16T13:15:59;15.20;99.90
16964;DHT22;8598;50.508;10.436;2023-05-16T13:18:25;15.30;99.90
16964;DHT22;8598;50.508;10.436;2023-05-16T13:20:52;15.20;99.90
16964;DHT22;8598;50.508;10.436;2023-05-16T13:23:19;15.10;99.90
16964;DHT22;8598;50.508;10.436;2023-05-16T13:25:45;15.00;99.90
16964;DHT22;8598;50.508;10.436;2023-05-16T13:28:12;15.00;99.90
16964;DHT22;8598;50.508;10.436;2023-05-16T13:30:38;14.90;99.90
16964;DHT22;8598;50.508;10.436;2023-05-16T13:33:06;14.60;99.90
16964;DHT22;8598;50.508;10.436;2023-05-16T13:35:33;14.30;99.90
16964;DHT22;8598;50.508;10.436;2023-05-16T13:38:00;14.30;99.90
16964;DHT22;8598;50.508;10.436;2023-05-16T13:40:28;14.50;99.90
16964;DHT22;8598;50.508;10.436;2023-05-16T13:42:55;14.80;99.90
16964;DHT22;8598;50.508;10.436;2023-05-16T13:45:22;14.80;99.90
16964;DHT22;8598;50.508;10.436;2023-05-16T13:47:48;14.90;99.90
16964;DHT22;8598;50.508;10.436;2023-05-16T13:50:16;15.10;99.90
16964;DHT22;8598;50.508;10.436;2023-05-16T13:52:43;15.00;99.90
16964;DHT22;8598;50.508;10.436;2023-05-16T13:55:12;15.20;99.90
16964;DHT22;8598;50.508;10.436;2023-05-16T13:57:38;15.10;99.90
16964;DHT22;8598;50.508;10.436;2023-05-16T14:00:06;15.20;99.90
16964;DHT22;8598;50.508;10.436;2023-05-16T14:02:37;15.00;99.90
16964;DHT22;8598;50.508;10.436;2023-05-16T14:05:04;15.10;99.90
16964;DHT22;8598;50.508;10.436;2023-05-16T14:07:32;14.80;99.90
16964;DHT22;8598;50.508;10.436;2023-05-16T14:09:59;14.80;99.90
16964;DHT22;8598;50.508;10.436;2023-05-16T14:12:25;14.70;99.90
16964;DHT22;8598;50.508;10.436;2023-05-16T14:14:52;14.60;99.90
16964;DHT22;8598;50.508;10.436;2023-05-16T14:17:20;14.40;99.90
16964;DHT22;8598;50.508;10.436;2023-05-16T14:19:46;14.30;99.90
16964;DHT22;8598;50.508;10.436;2023-05-16T14:22:13;14.20;99.90
16964;DHT22;8598;50.508;10.436;2023-05-16T14:24:41;14.10;99.90
16964;DHT22;8598;50.508;10.436;2023-05-16T14:27:07;14.10;99.90
16964;DHT22;8598;50.508;10.436;2023-05-16T14:29:34;14.00;99.90
16964;DHT22;8598;50.508;10.436;2023-05-16T14:32:01;13.80;99.90
16964;DHT22;8598;50.508;10.436;2023-05-16T14:34:28;13.90;99.90
16964;DHT22;8598;50.508;10.436;2023-05-16T14:36:54;13.80;99.90
16964;DHT22;8598;50.508;10.436;2023-05-16T14:39:21;14.00;99.90
16964;DHT22;8598;50.508;10.436;2023-05-16T14:41:49;13.90;99.90
16964;DHT22;8598;50.508;10.436;2023-05-16T14:44:15;13.90;99.90
16964;DHT22;8598;50.508;10.436;2023-05-16T14:46:42;13.90;99.90
16964;DHT22;8598;50.508;10.436;2023-05-16T14:49:09;13.90;99.90
16964;DHT22;8598;50.508;10.436;2023-05-16T14:51:35;13.90;99.90
16964;DHT22;8598;50.508;10.436;2023-05-16T14:54:02;13.90;99.90
16964;DHT22;8598;50.508;10.436;2023-05-16T14:56:30;13.90;99.90
16964;DHT22;8598;50.508;10.436;2023-05-16T14:58:59;14.00;99.90
16964;DHT22;8598;50.508;10.436;2023-05-16T15:01:26;13.70;99.90
16964;DHT22;8598;50.508;10.436;2023-05-16T15:03:52;13.90;99.90
16964;DHT22;8598;50.508;10.436;2023-05-16T15:06:19;13.90;99.90
16964;DHT22;8598;50.508;10.436;2023-05-16T15:08:45;14.00;99.90
16964;DHT22;8598;50.508;10.436;2023-05-16T15:11:12;13.80;99.90
16964;DHT22;8598;50.508;10.436;2023-05-16T15:13:39;13.80;99.90
16964;DHT22;8598;50.508;10.436;2023-05-16T15:16:07;13.90;99.90
16964;DHT22;8598;50.508;10.436;2023-05-16T15:18:34;13.90;99.90
16964;DHT22;8598;50.508;10.436;2023-05-16T15:21:00;14.00;99.90
16964;DHT22;8598;50.508;10.436;2023-05-16T15:23:27;14.10;99.90
16964;DHT22;8598;50.508;10.436;2023-05-16T15:25:54;14.30;99.90
16964;DHT22;8598;50.508;10.436;2023-05-16T15:28:20;14.20;99.90
16964;DHT22;8598;50.508;10.436;2023-05-16T15:30:47;14.10;99.90
16964;DHT22;8598;50.508;10.436;2023-05-16T15:33:15;14.20;99.90
16964;DHT22;8598;50.508;10.436;2023-05-16T15:35:42;13.90;99.90